Time;durP1;ratioP1;P1;durP2;ratioP2;P2;SDS_P1;SDS_P2;PMS_P1;PMS_P2;Temp;Humidity;BMP_temperature;BMP_pressure;BME280_temperature;BME280_humidity;BME280_pressure;Samples;Min_cycle;Max_cycle;Signal;HPM_P1;HPM_P2
2022/07/18 00:01:11;;;;;;;1.43;0.60;;;16.50;81.90;;;;;;4954900;29;20206;-67
2022/07/18 00:03:39;;;;;;;3.57;0.70;;;16.60;79.60;;;;;;4956611;28;20195;-67
2022/07/18 00:06:06;;;;;;;0.87;0.63;;;16.90;89.30;;;;;;4973191;28;20202;-66
2022/07/18 00:08:33;;;;;;;1.80;0.60;;;17.00;90.80;;;;;;4968454;28;20650;-67
2022/07/18 00:11:01;;;;;;;1.40;0.60;;;16.80;90.20;;;;;;4954595;29;20213;-68
2022/07/18 00:13:28;;;;;;;0.97;0.50;;;16.90;87.90;;;;;;4954527;28;20215;-67
2022/07/18 00:15:55;;;;;;;5.20;0.70;;;16.80;92.20;;;;;;4954307;28;20187;-68
2022/07/18 00:18:23;;;;;;;2.30;0.87;;;16.90;91.10;;;;;;4954422;28;20212;-67
2022/07/18 00:20:50;;;;;;;1.87;0.50;;;17.40;93.50;;;;;;4964533;28;20190;-67
2022/07/18 00:23:17;;;;;;;1.33;0.50;;;17.30;90.70;;;;;;4973656;28;20246;-67
2022/07/18 00:25:45;;;;;;;3.20;0.70;;;17.50;85.30;;;;;;4962185;28;20187;-68
2022/07/18 00:28:12;;;;;;;0.93;0.60;;;17.20;90.60;;;;;;4973462;28;20258;-67
2022/07/18 00:30:40;;;;;;;1.60;0.80;;;17.60;91.50;;;;;;4973896;28;20187;-67
2022/07/18 00:33:08;;;;;;;2.67;0.63;;;17.20;80.50;;;;;;4973428;28;20218;-67
2022/07/18 00:35:35;;;;;;;1.03;0.50;;;16.90;86.80;;;;;;4971192;28;20186;-69
2022/07/18 00:38:03;;;;;;;0.47;0.40;;;17.00;82.70;;;;;;4954126;28;20546;-68
2022/07/18 00:40:32;;;;;;;2.43;0.70;;;16.50;85.10;;;;;;4954060;29;20263;-67
2022/07/18 00:42:59;;;;;;;5.93;1.30;;;16.70;82.00;;;;;;4965866;28;20183;-69
2022/07/18 00:45:30;;;;;;;1.47;0.60;;;16.50;81.80;;;;;;4954109;28;20230;-68
2022/07/18 00:47:57;;;;;;;3.70;0.93;;;16.70;83.70;;;;;;4961434;28;20350;-67
2022/07/18 00:50:25;;;;;;;1.17;0.57;;;16.90;82.20;;;;;;4956403;28;20201;-69
2022/07/18 00:52:52;;;;;;;1.60;0.60;;;17.20;82.20;;;;;;4954938;28;20216;-69
2022/07/18 00:55:20;;;;;;;0.70;0.70;;;17.30;81.20;;;;;;4953623;29;20187;-69
2022/07/18 00:57:47;;;;;;;0.87;0.57;;;17.20;84.10;;;;;;4964220;28;20274;-67
2022/07/18 01:03:01;;;;;;;2.83;0.80;;;17.60;79.70;;;;;;4954055;29;20247;-68
2022/07/18 01:05:28;;;;;;;1.17;0.50;;;18.00;79.70;;;;;;4953928;29;20190;-67
2022/07/18 01:07:56;;;;;;;1.40;0.60;;;18.30;73.70;;;;;;4954045;28;20203;-68
2022/07/18 01:10:23;;;;;;;1.87;0.60;;;18.30;68.60;;;;;;4955327;28;20487;-69
2022/07/18 01:12:51;;;;;;;2.47;0.60;;;18.30;69.30;;;;;;4970288;28;20231;-68
2022/07/18 01:15:18;;;;;;;0.67;0.43;;;18.20;73.40;;;;;;4958505;28;20192;-69
2022/07/18 01:17:46;;;;;;;2.23;0.80;;;18.30;69.10;;;;;;4954710;28;20196;-69
2022/07/18 01:20:13;;;;;;;1.67;0.50;;;18.10;70.00;;;;;;4958270;28;20182;-68
2022/07/18 01:22:41;;;;;;;2.93;0.87;;;17.40;69.50;;;;;;4956396;28;20614;-71
2022/07/18 01:25:10;;;;;;;1.43;0.73;;;17.50;73.20;;;;;;4955110;28;20607;-70
2022/07/18 01:27:37;;;;;;;1.67;1.23;;;17.90;71.60;;;;;;4970065;28;20275;-70
2022/07/18 01:30:06;;;;;;;1.43;0.90;;;18.10;70.00;;;;;;4957487;28;20187;-70
2022/07/18 01:32:33;;;;;;;1.10;0.60;;;17.90;68.70;;;;;;4958516;28;20306;-72
2022/07/18 01:35:00;;;;;;;0.80;0.57;;;18.10;73.20;;;;;;4957658;28;20177;-70
2022/07/18 01:37:28;;;;;;;1.33;0.43;;;18.60;69.60;;;;;;4958047;28;20187;-68
2022/07/18 01:39:56;;;;;;;0.57;0.50;;;18.50;66.60;;;;;;4957243;28;20231;-70
2022/07/18 01:42:24;;;;;;;0.63;0.50;;;17.40;65.90;;;;;;4959197;28;20191;-69
2022/07/18 01:44:51;;;;;;;0.60;0.40;;;17.20;73.20;;;;;;4968294;28;20184;-69
2022/07/18 01:47:18;;;;;;;0.77;0.43;;;18.00;74.50;;;;;;4958382;28;20195;-69
2022/07/18 01:49:46;;;;;;;0.87;0.80;;;17.90;70.80;;;;;;4966954;28;20274;-69
2022/07/18 01:52:13;;;;;;;0.87;0.50;;;17.40;72.30;;;;;;4961150;28;20223;-68
2022/07/18 01:54:40;;;;;;;2.40;0.80;;;16.90;75.10;;;;;;4959719;28;20199;-67
2022/07/18 01:57:08;;;;;;;0.93;0.73;;;16.20;81.80;;;;;;4976398;28;20183;-69
2022/07/18 01:59:36;;;;;;;0.80;0.60;;;15.70;91.70;;;;;;4961296;28;20190;-71
2022/07/18 02:02:05;;;;;;;1.70;0.70;;;15.60;99.90;;;;;;4957639;28;20192;-68
2022/07/18 02:07:17;;;;;;;2.43;0.70;;;17.00;99.90;;;;;;4958067;28;20254;-69
2022/07/18 02:09:45;;;;;;;0.67;0.60;;;17.60;99.90;;;;;;4974585;28;20584;-68
2022/07/18 02:12:12;;;;;;;1.07;0.67;;;17.40;98.40;;;;;;4960057;28;20207;-67
2022/07/18 02:14:39;;;;;;;2.47;0.80;;;17.60;99.90;;;;;;4968793;28;20200;-70
2022/07/18 02:17:07;;;;;;;1.10;0.70;;;17.50;96.30;;;;;;4956565;28;20243;-70
2022/07/18 02:19:34;;;;;;;0.77;0.70;;;17.10;99.00;;;;;;4962640;28;20194;-71
2022/07/18 02:22:01;;;;;;;0.87;0.57;;;17.10;95.40;;;;;;4975823;28;20183;-68
2022/07/18 02:24:29;;;;;;;5.60;0.50;;;16.70;97.50;;;;;;4960836;28;20196;-68
2022/07/18 02:26:56;;;;;;;0.90;0.80;;;16.40;96.00;;;;;;4973225;28;20266;-71
2022/07/18 02:29:24;;;;;;;1.60;0.70;;;16.50;97.50;;;;;;4975677;28;20618;-68
2022/07/18 02:31:51;;;;;;;2.00;0.80;;;16.60;94.30;;;;;;4956917;28;20244;-71
2022/07/18 02:34:18;;;;;;;0.90;0.60;;;17.10;93.30;;;;;;4969195;28;20187;-70
2022/07/18 02:36:46;;;;;;;0.93;0.67;;;17.50;95.20;;;;;;4974979;28;20241;-69
2022/07/18 02:39:14;;;;;;;1.07;0.60;;;17.60;90.20;;;;;;4964482;28;20282;-70
2022/07/18 02:41:42;;;;;;;0.50;0.50;;;17.30;93.90;;;;;;4956383;28;20532;-71
2022/07/18 02:44:09;;;;;;;3.90;0.70;;;17.60;88.50;;;;;;4969265;28;20195;-69
2022/07/18 02:46:36;;;;;;;2.07;0.80;;;17.90;91.30;;;;;;4967371;28;20680;-68
2022/07/18 02:49:04;;;;;;;1.17;0.63;;;18.00;88.00;;;;;;4962321;28;20191;-70
2022/07/18 02:51:31;;;;;;;1.47;0.50;;;17.70;80.70;;;;;;4956906;28;20222;-67
2022/07/18 02:53:58;;;;;;;0.57;0.57;;;17.50;78.60;;;;;;4963345;28;20184;-67
2022/07/18 02:56:26;;;;;;;0.70;0.60;;;17.30;80.50;;;;;;4956104;28;20180;-70
2022/07/18 02:58:53;;;;;;;0.67;0.50;;;17.20;79.70;;;;;;4956022;28;20196;-71
2022/07/18 03:01:20;;;;;;;3.00;0.63;;;16.60;87.50;;;;;;4955898;28;20190;-69
2022/07/18 03:03:48;;;;;;;1.07;0.60;;;16.50;88.00;;;;;;4968181;28;20604;-70
2022/07/18 03:06:15;;;;;;;1.07;0.60;;;16.10;87.30;;;;;;4970392;28;20184;-69
2022/07/18 03:08:42;;;;;;;0.70;0.60;;;15.80;91.50;;;;;;4956887;28;20251;-69
2022/07/18 03:11:10;;;;;;;1.83;0.60;;;15.70;88.00;;;;;;4971333;28;20187;-66
2022/07/18 03:13:37;;;;;;;1.07;0.80;;;16.10;84.30;;;;;;4974229;28;20300;-70
2022/07/18 03:16:04;;;;;;;2.97;0.70;;;16.30;79.70;;;;;;4974531;28;20175;-69
2022/07/18 03:18:32;;;;;;;1.50;1.00;;;16.50;79.10;;;;;;4961506;28;20188;-68
2022/07/18 03:20:59;;;;;;;0.50;0.50;;;16.50;78.60;;;;;;4955981;28;20271;-65
2022/07/18 03:23:26;;;;;;;2.60;0.70;;;16.40;74.30;;;;;;4966726;28;20527;-67
2022/07/18 03:25:54;;;;;;;1.30;0.60;;;16.90;77.70;;;;;;4956210;29;20176;-67
2022/07/18 03:28:21;;;;;;;1.93;0.73;;;17.10;74.70;;;;;;4955433;29;20184;-67
2022/07/18 03:30:48;;;;;;;0.83;0.60;;;17.60;74.80;;;;;;4955434;29;20203;-67
2022/07/18 03:33:15;;;;;;;3.13;0.70;;;17.70;71.40;;;;;;4972504;28;20215;-66
2022/07/18 03:35:43;;;;;;;7.10;1.00;;;18.00;72.10;;;;;;4974666;28;20179;-66
2022/07/18 03:38:10;;;;;;;0.50;0.50;;;18.00;71.70;;;;;;4974586;28;20183;-67
2022/07/18 03:40:37;;;;;;;0.93;0.50;;;17.50;70.70;;;;;;4974394;28;20233;-66
2022/07/18 03:43:05;;;;;;;0.60;0.50;;;17.30;68.80;;;;;;4958095;28;20187;-68
2022/07/18 03:45:32;;;;;;;1.50;0.70;;;17.20;64.20;;;;;;4955219;28;20243;-67
2022/07/18 03:48:00;;;;;;;1.33;0.63;;;17.50;66.90;;;;;;4954988;28;20183;-67
2022/07/18 03:50:27;;;;;;;2.90;0.63;;;17.80;68.70;;;;;;4959874;28;20195;-69
2022/07/18 03:52:55;;;;;;;2.60;0.70;;;17.90;66.90;;;;;;4974357;28;20215;-68
2022/07/18 03:55:22;;;;;;;1.03;0.50;;;18.20;68.10;;;;;;4974220;28;20179;-68
2022/07/18 03:57:50;;;;;;;1.23;0.50;;;18.10;65.00;;;;;;4974433;28;20278;-68
2022/07/18 04:00:17;;;;;;;3.03;0.50;;;17.90;64.40;;;;;;4965340;28;20183;-68
2022/07/18 04:02:47;;;;;;;1.47;0.60;;;17.70;63.60;;;;;;4974222;28;20237;-68
2022/07/18 04:05:16;;;;;;;3.17;0.60;;;17.70;64.40;;;;;;4974264;28;20202;-70
2022/07/18 04:07:43;;;;;;;0.90;0.60;;;17.70;59.80;;;;;;4974132;28;20212;-70
2022/07/18 04:10:11;;;;;;;1.93;0.60;;;17.30;60.10;;;;;;4964464;28;20192;-67
2022/07/18 04:12:50;;;;;;;1.90;0.60;;;17.30;57.50;;;;;;4954589;28;20306;-70
2022/07/18 04:15:18;;;;;;;1.73;0.70;;;17.30;58.20;;;;;;4954537;28;20199;-71
2022/07/18 04:17:46;;;;;;;1.00;0.60;;;17.50;59.60;;;;;;4954640;28;20662;-68
2022/07/18 04:20:14;;;;;;;0.80;0.60;;;17.90;60.10;;;;;;4963533;28;20237;-70
2022/07/18 04:22:50;;;;;;;1.37;0.57;;;18.10;57.90;;;;;;4973898;28;20186;-70
2022/07/18 04:25:19;;;;;;;1.43;0.57;;;18.20;56.20;;;;;;4973812;28;20261;-71
2022/07/18 04:27:47;;;;;;;0.63;0.50;;;18.00;55.10;;;;;;4960097;28;20796;-66
2022/07/18 04:30:17;;;;;;;1.70;0.80;;;18.00;55.00;;;;;;4963427;28;20273;-67
2022/07/18 04:32:44;;;;;;;0.60;0.60;;;17.80;55.70;;;;;;4966432;28;20217;-68
2022/07/18 04:35:12;;;;;;;1.00;0.60;;;17.60;52.60;;;;;;4973659;28;20183;-67
2022/07/18 04:37:40;;;;;;;1.83;0.70;;;17.70;53.80;;;;;;4954309;28;20199;-67
2022/07/18 04:40:10;;;;;;;3.90;0.60;;;17.50;55.80;;;;;;4953778;28;20239;-65
2022/07/18 04:42:38;;;;;;;0.87;0.70;;;17.70;57.70;;;;;;4958369;28;20194;-71
2022/07/18 04:45:06;;;;;;;2.10;0.57;;;17.40;53.30;;;;;;4973340;28;20191;-69
2022/07/18 04:47:34;;;;;;;2.20;0.70;;;17.20;51.10;;;;;;4973456;28;20175;-69
2022/07/18 04:50:01;;;;;;;1.53;0.60;;;17.20;53.20;;;;;;4971662;28;20195;-69
2022/07/18 04:52:37;;;;;;;1.63;0.70;;;17.20;55.30;;;;;;4973309;28;20215;-68
2022/07/18 04:55:05;;;;;;;1.90;0.40;;;17.20;58.20;;;;;;4963678;28;20179;-68
2022/07/18 04:57:32;;;;;;;0.63;0.50;;;17.20;59.70;;;;;;4964249;28;20174;-70
2022/07/18 05:00:00;;;;;;;1.60;0.57;;;17.10;60.60;;;;;;4972995;28;20261;-66
2022/07/18 05:02:27;;;;;;;0.47;0.47;;;16.90;64.90;;;;;;4973263;28;20203;-71
2022/07/18 05:04:55;;;;;;;1.83;0.70;;;16.80;66.40;;;;;;4973300;28;20645;-70
2022/07/18 05:07:22;;;;;;;0.73;0.53;;;16.70;70.80;;;;;;4972351;28;20262;-69
2022/07/18 05:09:49;;;;;;;1.43;0.63;;;16.60;70.50;;;;;;4973334;28;20649;-67
2022/07/18 05:12:18;;;;;;;0.40;0.40;;;16.20;67.00;;;;;;4973283;28;20589;-71
2022/07/18 05:14:46;;;;;;;1.80;0.60;;;16.30;70.50;;;;;;4966300;28;20187;-68
2022/07/18 05:17:13;;;;;;;1.77;0.60;;;16.60;70.30;;;;;;4953724;29;20184;-71
2022/07/18 05:19:40;;;;;;;3.10;0.63;;;16.40;68.70;;;;;;4953770;29;20188;-71
2022/07/18 05:22:07;;;;;;;2.30;1.13;;;16.30;70.00;;;;;;4953870;28;20705;-68
2022/07/18 05:24:35;;;;;;;1.50;0.63;;;16.30;69.80;;;;;;4958509;28;20285;-70
2022/07/18 05:27:02;;;;;;;0.80;0.60;;;16.10;70.00;;;;;;4972968;28;20178;-69
2022/07/18 05:29:29;;;;;;;1.17;0.50;;;15.90;71.90;;;;;;4973179;28;20171;-70
2022/07/18 05:31:57;;;;;;;2.23;0.70;;;15.70;67.80;;;;;;4973052;28;20242;-67
2022/07/18 05:34:24;;;;;;;1.37;0.70;;;15.50;68.60;;;;;;4969427;28;20180;-67
2022/07/18 05:36:52;;;;;;;2.67;0.60;;;15.40;66.30;;;;;;4952608;28;20184;-67
2022/07/18 05:39:19;;;;;;;0.73;0.50;;;15.20;70.20;;;;;;4953530;29;20238;-67
2022/07/18 05:41:46;;;;;;;1.67;0.63;;;15.10;69.10;;;;;;4952338;28;20181;-67
2022/07/18 05:44:14;;;;;;;1.33;0.90;;;14.90;72.10;;;;;;4972401;28;20647;-67
2022/07/18 05:46:41;;;;;;;2.30;0.70;;;14.70;74.80;;;;;;4964229;28;20199;-68
2022/07/18 05:49:08;;;;;;;1.23;0.77;;;14.50;76.20;;;;;;4953640;28;20183;-67
2022/07/18 05:51:36;;;;;;;2.43;0.93;;;14.50;73.70;;;;;;4964267;28;20186;-67
2022/07/18 05:54:03;;;;;;;0.83;0.63;;;14.40;76.30;;;;;;4972833;28;20217;-67
2022/07/18 05:56:30;;;;;;;2.33;0.80;;;14.40;76.50;;;;;;4973134;28;20583;-68
2022/07/18 05:58:58;;;;;;;0.83;0.60;;;14.20;77.00;;;;;;4973137;28;20189;-67
2022/07/18 06:01:25;;;;;;;2.57;1.00;;;14.20;78.70;;;;;;4968079;28;20189;-69
2022/07/18 06:03:52;;;;;;;1.67;0.70;;;14.10;79.40;;;;;;4953752;28;20272;-68
2022/07/18 06:06:20;;;;;;;1.97;0.60;;;14.00;77.90;;;;;;4967402;28;20196;-68
2022/07/18 06:08:47;;;;;;;2.53;1.00;;;14.00;81.30;;;;;;4972727;28;20184;-66
2022/07/18 06:11:14;;;;;;;1.77;0.90;;;13.90;84.90;;;;;;4960192;28;20189;-68
2022/07/18 06:13:42;;;;;;;2.93;0.87;;;13.90;89.70;;;;;;4956646;28;20249;-67
2022/07/18 06:16:10;;;;;;;2.70;0.90;;;13.90;90.30;;;;;;4956709;28;20227;-67
2022/07/18 06:18:37;;;;;;;3.77;0.90;;;13.80;86.40;;;;;;4956805;28;20174;-66
2022/07/18 06:21:05;;;;;;;0.67;0.67;;;13.80;88.10;;;;;;4962038;28;20667;-66
2022/07/18 06:23:33;;;;;;;1.43;0.93;;;13.70;89.00;;;;;;4975384;28;20545;-66
2022/07/18 06:26:00;;;;;;;0.70;0.60;;;13.70;90.50;;;;;;4976031;28;20178;-66
2022/07/18 06:28:28;;;;;;;0.73;0.70;;;13.60;91.80;;;;;;4975808;28;20218;-67
2022/07/18 06:30:55;;;;;;;2.37;1.10;;;13.60;93.00;;;;;;4973746;28;20243;-68
2022/07/18 06:33:23;;;;;;;2.33;0.90;;;13.60;94.80;;;;;;4975681;28;20389;-67
2022/07/18 06:35:51;;;;;;;2.13;1.00;;;13.50;96.20;;;;;;4975411;28;20181;-67
2022/07/18 06:38:18;;;;;;;3.47;1.00;;;13.50;98.50;;;;;;4967594;28;20726;-68
2022/07/18 06:40:45;;;;;;;2.47;0.73;;;13.40;99.90;;;;;;4960013;28;20363;-68
2022/07/18 06:43:18;;;;;;;6.53;1.23;;;13.30;99.90;;;;;;4975561;28;20702;-67
2022/07/18 06:45:51;;;;;;;1.07;0.93;;;13.30;99.90;;;;;;4975623;28;20189;-67
2022/07/18 06:48:19;;;;;;;1.10;1.00;;;13.20;99.90;;;;;;4975923;28;20177;-67
2022/07/18 06:50:46;;;;;;;1.80;0.93;;;13.20;99.90;;;;;;4971523;28;20182;-68
2022/07/18 06:53:14;;;;;;;4.47;1.10;;;13.10;99.90;;;;;;4956117;29;20766;-67
2022/07/18 06:55:41;;;;;;;5.77;1.50;;;13.00;99.90;;;;;;4956105;28;20558;-67
2022/07/18 06:58:09;;;;;;;1.17;1.00;;;13.00;99.90;;;;;;4955965;28;20247;-68
2022/07/18 07:00:36;;;;;;;2.30;0.90;;;12.90;99.90;;;;;;4957811;28;20180;-67
2022/07/18 07:03:04;;;;;;;1.40;0.90;;;12.80;99.90;;;;;;4975154;28;20178;-67
2022/07/18 07:05:32;;;;;;;3.43;0.90;;;12.70;99.90;;;;;;4971380;28;20183;-67
2022/07/18 07:07:59;;;;;;;2.40;1.00;;;12.70;99.90;;;;;;4955903;28;20565;-67
2022/07/18 07:10:27;;;;;;;1.30;1.00;;;12.50;99.90;;;;;;4955934;29;20179;-67
2022/07/18 07:12:54;;;;;;;2.03;1.03;;;12.40;99.90;;;;;;4956422;29;20262;-67
2022/07/18 07:15:23;;;;;;;2.83;1.20;;;12.30;99.90;;;;;;4954755;29;20185;-67
2022/07/18 07:17:51;;;;;;;2.87;1.40;;;12.20;99.90;;;;;;4955889;28;20182;-67
2022/07/18 07:20:21;;;;;;;2.87;1.30;;;12.20;99.90;;;;;;4955794;29;20671;-67
2022/07/18 07:22:49;;;;;;;2.07;1.10;;;12.10;99.90;;;;;;4955428;28;20673;-69
2022/07/18 07:25:18;;;;;;;2.97;1.00;;;12.00;99.90;;;;;;4955043;28;20193;-67
2022/07/18 07:27:46;;;;;;;2.83;1.47;;;12.00;99.90;;;;;;4955743;29;20192;-67
2022/07/18 07:30:15;;;;;;;4.57;1.43;;;11.90;99.90;;;;;;4956106;28;20186;-67
2022/07/18 07:32:44;;;;;;;3.10;1.50;;;11.80;99.90;;;;;;4966000;28;20340;-69
2022/07/18 07:35:14;;;;;;;3.10;1.60;;;11.80;99.90;;;;;;4955213;28;20595;-67
2022/07/18 07:37:44;;;;;;;5.20;2.07;;;11.80;99.90;;;;;;4955227;29;20227;-68
2022/07/18 07:40:13;;;;;;;4.47;2.50;;;11.80;99.90;;;;;;4955099;29;20754;-66
2022/07/18 07:42:40;;;;;;;3.37;2.17;;;11.70;99.90;;;;;;4955261;28;20248;-67
2022/07/18 07:45:08;;;;;;;5.40;2.70;;;11.60;99.90;;;;;;4969230;28;20193;-67
2022/07/18 07:47:37;;;;;;;7.73;2.47;;;11.50;99.90;;;;;;4974453;28;20188;-67
2022/07/18 07:50:06;;;;;;;3.30;1.43;;;11.40;99.90;;;;;;4974373;28;20183;-70
2022/07/18 07:52:34;;;;;;;2.87;1.73;;;11.40;99.90;;;;;;4974381;28;20655;-68
2022/07/18 07:55:02;;;;;;;3.03;1.80;;;11.40;99.90;;;;;;4969273;28;20204;-70
2022/07/18 07:57:29;;;;;;;5.33;1.67;;;11.30;99.90;;;;;;4954968;29;20283;-68
2022/07/18 07:59:57;;;;;;;2.50;1.70;;;11.30;99.90;;;;;;4971232;28;20199;-70
2022/07/18 08:02:24;;;;;;;1.30;1.20;;;11.20;99.90;;;;;;4974147;28;20231;-68
2022/07/18 08:04:51;;;;;;;1.80;1.10;;;11.30;99.90;;;;;;4963823;28;20188;-68
2022/07/18 08:07:20;;;;;;;2.93;1.40;;;11.30;99.90;;;;;;4955259;28;20600;-67
2022/07/18 08:09:47;;;;;;;2.70;1.37;;;11.20;99.90;;;;;;4954544;28;20192;-68
2022/07/18 08:12:15;;;;;;;4.77;1.53;;;11.30;99.90;;;;;;4954821;28;20220;-67
2022/07/18 08:14:42;;;;;;;1.40;1.30;;;11.30;99.90;;;;;;4964866;28;20261;-69
2022/07/18 08:17:09;;;;;;;1.87;1.40;;;11.20;99.90;;;;;;4974125;28;20192;-68
2022/07/18 08:19:37;;;;;;;1.77;1.50;;;11.10;99.90;;;;;;4972035;28;20191;-68
2022/07/18 08:22:06;;;;;;;3.50;1.70;;;11.10;99.90;;;;;;4975117;28;20180;-70
2022/07/18 08:24:33;;;;;;;2.67;1.73;;;11.10;99.90;;;;;;4966668;28;20216;-68
2022/07/18 08:27:00;;;;;;;3.93;2.43;;;11.00;99.90;;;;;;4955474;28;20199;-69
2022/07/18 08:29:28;;;;;;;5.67;2.83;;;10.90;99.90;;;;;;4961807;28;20651;-67
2022/07/18 08:31:55;;;;;;;2.97;1.87;;;10.90;99.90;;;;;;4974652;28;20246;-68
2022/07/18 08:34:23;;;;;;;6.20;1.90;;;10.80;99.90;;;;;;4974524;28;20225;-68
2022/07/18 08:36:50;;;;;;;4.23;1.70;;;10.70;99.90;;;;;;4972839;28;20188;-67
2022/07/18 08:39:17;;;;;;;3.43;2.43;;;10.70;99.90;;;;;;4974691;28;20235;-67
2022/07/18 08:41:49;;;;;;;2.43;1.90;;;10.60;99.90;;;;;;4974766;28;20186;-67
2022/07/18 08:44:16;;;;;;;4.67;1.70;;;10.50;99.90;;;;;;4974887;28;20187;-67
2022/07/18 08:46:53;;;;;;;1.73;1.50;;;10.50;99.90;;;;;;4974619;28;20242;-68
2022/07/18 08:49:22;;;;;;;1.97;1.20;;;10.40;99.90;;;;;;4974768;28;20203;-67
2022/07/18 08:51:50;;;;;;;3.50;1.93;;;10.40;99.90;;;;;;4974561;28;20219;-66
2022/07/18 08:54:17;;;;;;;3.07;1.70;;;10.30;99.90;;;;;;4975077;28;20191;-67
2022/07/18 08:56:45;;;;;;;3.37;1.50;;;10.30;99.90;;;;;;4975111;28;20186;-68
2022/07/18 08:59:12;;;;;;;3.00;1.50;;;10.30;99.90;;;;;;4974504;28;20183;-68
2022/07/18 09:01:39;;;;;;;3.37;2.00;;;10.30;99.90;;;;;;4974607;28;20206;-68
2022/07/18 09:04:16;;;;;;;3.10;1.93;;;10.30;99.90;;;;;;4974459;28;20648;-68
2022/07/18 09:06:46;;;;;;;3.80;2.20;;;10.30;99.90;;;;;;4974500;28;20176;-68
2022/07/18 09:09:15;;;;;;;3.33;1.80;;;10.30;99.90;;;;;;4974655;28;20535;-68
2022/07/18 09:11:57;;;;;;;3.50;2.23;;;10.30;99.90;;;;;;4974633;28;20185;-67
2022/07/18 09:14:33;;;;;;;2.30;1.70;;;10.40;99.90;;;;;;4974508;28;20603;-67
2022/07/18 09:17:01;;;;;;;6.40;1.90;;;10.50;99.90;;;;;;4973220;28;20189;-68
2022/07/18 09:19:29;;;;;;;4.03;1.50;;;10.40;99.90;;;;;;4974617;28;20179;-67
2022/07/18 09:22:19;;;;;;;1.93;1.20;;;10.40;99.90;;;;;;4974776;28;20184;-68
2022/07/18 09:24:58;;;;;;;3.03;1.50;;;10.40;99.90;;;;;;4974432;28;20597;-68
2022/07/18 09:27:35;;;;;;;2.30;1.70;;;10.40;99.90;;;;;;4974499;28;20180;-67
2022/07/18 09:30:16;;;;;;;2.00;1.20;;;10.40;99.90;;;;;;4974216;28;20666;-67
2022/07/18 09:33:08;;;;;;;3.53;1.07;;;10.40;99.90;;;;;;4972916;28;20243;-67
2022/07/18 09:35:38;;;;;;;2.27;1.40;;;10.40;99.90;;;;;;4974392;28;20187;-68
2022/07/18 09:38:14;;;;;;;3.17;1.40;;;10.30;99.90;;;;;;4973649;28;20185;-67
2022/07/18 09:40:47;;;;;;;2.67;1.40;;;10.30;99.90;;;;;;4962314;28;20309;-65
2022/07/18 09:43:17;;;;;;;1.80;1.20;;;10.30;99.90;;;;;;4969019;28;20214;-65
2022/07/18 09:45:53;;;;;;;1.70;1.00;;;10.30;99.90;;;;;;4960479;28;20273;-68
2022/07/18 09:48:24;;;;;;;4.30;1.30;;;10.30;99.90;;;;;;4961394;28;20350;-68
2022/07/18 09:50:55;;;;;;;3.50;1.33;;;10.30;99.90;;;;;;4970001;28;20188;-67
2022/07/18 09:53:25;;;;;;;3.83;1.20;;;10.30;99.90;;;;;;4958910;29;20216;-68
2022/07/18 09:55:53;;;;;;;2.10;1.30;;;10.30;99.90;;;;;;4958698;28;20180;-68
2022/07/18 09:58:32;;;;;;;3.63;1.83;;;10.30;99.90;;;;;;4965481;28;20250;-67
2022/07/18 10:01:02;;;;;;;2.83;1.47;;;10.30;99.90;;;;;;4977601;28;20178;-68
2022/07/18 10:03:29;;;;;;;2.13;1.57;;;10.20;99.90;;;;;;4978384;28;20190;-68
2022/07/18 10:06:00;;;;;;;3.60;1.67;;;10.20;99.90;;;;;;4977551;28;20640;-67
2022/07/18 10:08:32;;;;;;;4.40;1.67;;;10.20;99.90;;;;;;4969328;28;20252;-66
2022/07/18 10:11:01;;;;;;;2.27;1.43;;;10.10;99.90;;;;;;4958204;28;20641;-68
2022/07/18 10:13:30;;;;;;;3.80;1.50;;;10.10;99.90;;;;;;4958773;28;20222;-67
2022/07/18 10:15:58;;;;;;;3.97;1.50;;;10.00;99.90;;;;;;4969217;28;20217;-67
2022/07/18 10:18:32;;;;;;;3.03;1.30;;;9.90;99.90;;;;;;4976735;28;20179;-67
2022/07/18 10:21:11;;;;;;;2.73;1.20;;;9.80;99.90;;;;;;4977525;28;20637;-68
2022/07/18 10:23:38;;;;;;;1.07;0.97;;;9.80;99.90;;;;;;4977307;28;20239;-67
2022/07/18 10:26:21;;;;;;;1.23;1.10;;;9.70;99.90;;;;;;4977652;28;20207;-68
2022/07/18 10:29:01;;;;;;;2.83;1.27;;;9.70;99.90;;;;;;4966447;28;20217;-67
2022/07/18 10:31:33;;;;;;;2.00;1.30;;;9.60;99.90;;;;;;4957880;29;20252;-66
2022/07/18 10:34:10;;;;;;;1.67;1.20;;;9.60;99.90;;;;;;4957763;29;20192;-67
2022/07/18 10:36:51;;;;;;;1.40;1.30;;;9.50;99.90;;;;;;4957510;28;20598;-66
2022/07/18 10:39:20;;;;;;;1.90;1.27;;;9.50;99.90;;;;;;4966708;28;20233;-66
2022/07/18 10:41:48;;;;;;;2.87;1.43;;;9.40;99.90;;;;;;4964668;28;20191;-66
2022/07/18 10:44:38;;;;;;;2.07;1.20;;;9.30;99.90;;;;;;4958877;28;20183;-67
2022/07/18 10:47:05;;;;;;;4.30;1.70;;;9.30;99.90;;;;;;4957424;28;20187;-66
2022/07/18 10:49:48;;;;;;;4.07;1.80;;;9.20;99.90;;;;;;4970712;28;20263;-67
2022/07/18 10:52:27;;;;;;;2.40;1.70;;;9.10;99.90;;;;;;4976573;28;20211;-68
2022/07/18 10:55:04;;;;;;;2.20;2.00;;;9.00;99.90;;;;;;4976215;28;20236;-67
2022/07/18 10:57:43;;;;;;;3.87;2.00;;;9.00;99.90;;;;;;4976959;28;20698;-66
2022/07/18 11:00:13;;;;;;;3.10;1.90;;;9.00;99.90;;;;;;4958358;28;20239;-67
2022/07/18 11:03:08;;;;;;;2.70;1.50;;;8.90;99.90;;;;;;4957152;29;20179;-67
2022/07/18 11:05:37;;;;;;;4.73;2.10;;;8.90;99.90;;;;;;4957203;28;20669;-67
2022/07/18 11:08:04;;;;;;;2.87;2.03;;;8.80;99.90;;;;;;4959350;28;20186;-66
2022/07/18 11:13:29;;;;;;;4.57;2.63;;;8.70;99.90;;;;;;4976395;28;20277;-67
2022/07/18 11:16:05;;;;;;;2.90;1.90;;;8.60;99.90;;;;;;4969586;28;20195;-68
2022/07/18 11:18:53;;;;;;;5.47;2.60;;;8.40;99.90;;;;;;4969758;28;20194;-68
2022/07/18 11:21:34;;;;;;;5.93;2.67;;;8.30;99.90;;;;;;4976249;28;20262;-67
2022/07/18 11:24:07;;;;;;;7.37;2.47;;;8.20;99.90;;;;;;4976412;28;20179;-67
2022/07/18 11:26:46;;;;;;;3.67;2.20;;;8.10;99.90;;;;;;4976117;28;20192;-66
2022/07/18 11:29:16;;;;;;;3.50;2.27;;;8.00;99.90;;;;;;4960486;28;20266;-67
2022/07/18 11:31:50;;;;;;;3.47;2.03;;;7.90;99.90;;;;;;4956649;28;20183;-67
2022/07/18 11:34:18;;;;;;;3.53;1.63;;;7.80;99.90;;;;;;4956898;28;20291;-66
2022/07/18 11:36:47;;;;;;;2.20;1.80;;;7.70;99.90;;;;;;4965765;28;20189;-66
2022/07/18 11:39:28;;;;;;;5.17;1.73;;;7.70;99.90;;;;;;4960369;28;20313;-69
2022/07/18 11:41:55;;;;;;;2.70;1.60;;;7.80;99.90;;;;;;4956814;28;20179;-67
2022/07/18 11:44:26;;;;;;;6.50;2.47;;;7.80;99.90;;;;;;4956565;29;20180;-68
2022/07/18 11:47:05;;;;;;;4.37;2.50;;;7.80;99.90;;;;;;4956451;29;20607;-66
2022/07/18 11:49:32;;;;;;;5.63;2.10;;;7.90;99.90;;;;;;4975545;28;20183;-67
2022/07/18 11:52:00;;;;;;;5.00;2.10;;;8.00;99.90;;;;;;4975571;28;20208;-67
2022/07/18 11:54:28;;;;;;;6.00;2.73;;;8.10;99.90;;;;;;4974125;28;20187;-68
2022/07/18 11:56:56;;;;;;;2.03;1.80;;;8.00;99.90;;;;;;4964250;28;20191;-67
2022/07/18 11:59:34;;;;;;;5.63;2.33;;;7.90;99.90;;;;;;4964378;28;20550;-69
2022/07/18 12:02:02;;;;;;;5.30;1.90;;;7.90;99.90;;;;;;4958460;28;20318;-67
2022/07/18 12:04:30;;;;;;;2.00;1.77;;;7.80;99.90;;;;;;4956954;28;20180;-67
2022/07/18 12:07:20;;;;;;;2.73;1.90;;;7.70;99.90;;;;;;4965957;28;20203;-67
2022/07/18 12:09:51;;;;;;;5.90;2.00;;;7.60;99.90;;;;;;4966662;28;20559;-68
2022/07/18 12:12:21;;;;;;;2.47;1.50;;;7.50;99.90;;;;;;4963230;28;20207;-67
2022/07/18 12:15:01;;;;;;;2.97;1.97;;;7.40;99.90;;;;;;4961335;28;20172;-67
2022/07/18 12:17:30;;;;;;;2.53;1.60;;;7.30;99.90;;;;;;4960302;28;20191;-68
2022/07/18 12:20:15;;;;;;;4.50;2.00;;;7.20;99.90;;;;;;4965130;28;20180;-66
2022/07/18 12:23:10;;;;;;;2.30;2.10;;;7.10;99.90;;;;;;4963411;28;20522;-66
2022/07/18 12:25:44;;;;;;;2.87;2.10;;;7.00;99.90;;;;;;4958229;28;20223;-66
2022/07/18 12:28:16;;;;;;;2.23;1.90;;;7.00;99.90;;;;;;4959979;28;20242;-67
2022/07/18 12:30:44;;;;;;;2.80;2.03;;;7.10;99.90;;;;;;4964656;28;20616;-67
2022/07/18 12:33:12;;;;;;;3.73;1.90;;;7.20;99.90;;;;;;4963875;28;20210;-65
2022/07/18 12:35:40;;;;;;;3.43;1.97;;;7.30;99.90;;;;;;4958965;28;20263;-66
2022/07/18 12:38:16;;;;;;;5.70;2.10;;;7.30;99.90;;;;;;4959453;28;20191;-65
2022/07/18 12:40:54;;;;;;;5.23;3.17;;;7.30;99.90;;;;;;4961034;28;20727;-66
2022/07/18 12:43:29;;;;;;;6.60;3.00;;;7.30;99.90;;;;;;4955683;28;20295;-66
2022/07/18 12:45:58;;;;;;;8.23;3.10;;;7.40;99.90;;;;;;4955516;28;20239;-66
2022/07/18 12:48:29;;;;;;;3.80;2.50;;;7.50;99.90;;;;;;4957283;28;20180;-65
2022/07/18 12:51:04;;;;;;;6.60;2.93;;;7.50;99.90;;;;;;4973188;28;20191;-66
2022/07/18 12:53:34;;;;;;;4.13;2.53;;;7.50;99.90;;;;;;4974693;28;20230;-66
2022/07/18 12:56:01;;;;;;;5.73;2.30;;;7.40;99.90;;;;;;4974741;28;20194;-66
2022/07/18 12:58:29;;;;;;;3.30;2.23;;;7.30;99.90;;;;;;4966171;28;20243;-66
2022/07/18 13:00:56;;;;;;;5.67;2.27;;;7.20;99.90;;;;;;4970940;28;20186;-67
2022/07/18 13:03:24;;;;;;;4.07;2.40;;;7.20;99.90;;;;;;4955275;28;20210;-66
2022/07/18 13:05:51;;;;;;;4.70;2.50;;;7.20;99.90;;;;;;4955351;28;20338;-66
2022/07/18 13:08:19;;;;;;;2.40;2.20;;;7.30;99.90;;;;;;4955722;28;20608;-65